sensor_id;sensor_type;location;lat;lon;timestamp;P1;durP1;ratioP1;P2;durP2;ratioP2
20559;SDS011;10438;51.454;6.718;2023-08-06T00:02:04;10.60;;;4.43;;
20559;SDS011;10438;51.454;6.718;2023-08-06T00:04:30;6.53;;;4.00;;
20559;SDS011;10438;51.454;6.718;2023-08-06T00:06:55;8.48;;;4.22;;
20559;SDS011;10438;51.454;6.718;2023-08-06T00:09:21;8.85;;;3.80;;
20559;SDS011;10438;51.454;6.718;2023-08-06T00:11:46;6.85;;;4.28;;
20559;SDS011;10438;51.454;6.718;2023-08-06T00:14:12;11.18;;;4.20;;
20559;SDS011;10438;51.454;6.718;2023-08-06T00:16:40;7.47;;;4.05;;
20559;SDS011;10438;51.454;6.718;2023-08-06T00:19:08;6.35;;;4.00;;
20559;SDS011;10438;51.454;6.718;2023-08-06T00:21:33;7.90;;;4.50;;
20559;SDS011;10438;51.454;6.718;2023-08-06T00:23:59;9.68;;;3.42;;
20559;SDS011;10438;51.454;6.718;2023-08-06T00:26:24;7.28;;;3.33;;
20559;SDS011;10438;51.454;6.718;2023-08-06T00:28:50;6.75;;;3.42;;
20559;SDS011;10438;51.454;6.718;2023-08-06T00:31:15;7.13;;;3.55;;
20559;SDS011;10438;51.454;6.718;2023-08-06T00:33:41;7.43;;;3.75;;
20559;SDS011;10438;51.454;6.718;2023-08-06T00:36:06;7.95;;;3.85;;
20559;SDS011;10438;51.454;6.718;2023-08-06T00:38:32;7.32;;;3.65;;
20559;SDS011;10438;51.454;6.718;2023-08-06T00:40:57;7.13;;;3.25;;
20559;SDS011;10438;51.454;6.718;2023-08-06T00:43:23;7.28;;;3.67;;
20559;SDS011;10438;51.454;6.718;2023-08-06T00:45:48;7.18;;;3.33;;
20559;SDS011;10438;51.454;6.718;2023-08-06T00:48:14;6.40;;;3.00;;
20559;SDS011;10438;51.454;6.718;2023-08-06T00:50:40;6.70;;;2.85;;
20559;SDS011;10438;51.454;6.718;2023-08-06T00:53:06;6.25;;;3.13;;
20559;SDS011;10438;51.454;6.718;2023-08-06T00:55:32;10.05;;;3.40;;
20559;SDS011;10438;51.454;6.718;2023-08-06T00:57:58;5.43;;;3.00;;
20559;SDS011;10438;51.454;6.718;2023-08-06T01:00:24;6.60;;;3.10;;
20559;SDS011;10438;51.454;6.718;2023-08-06T01:02:50;5.68;;;3.53;;
20559;SDS011;10438;51.454;6.718;2023-08-06T01:05:16;6.43;;;3.17;;
20559;SDS011;10438;51.454;6.718;2023-08-06T01:13:21;4.47;;;2.90;;
20559;SDS011;10438;51.454;6.718;2023-08-06T01:15:57;6.60;;;3.22;;
20559;SDS011;10438;51.454;6.718;2023-08-06T01:18:26;7.63;;;2.75;;
20559;SDS011;10438;51.454;6.718;2023-08-06T01:20:52;6.15;;;3.00;;
20559;SDS011;10438;51.454;6.718;2023-08-06T01:23:17;6.20;;;2.90;;
20559;SDS011;10438;51.454;6.718;2023-08-06T01:31:15;11.07;;;3.10;;
20559;SDS011;10438;51.454;6.718;2023-08-06T01:33:46;8.30;;;3.20;;
20559;SDS011;10438;51.454;6.718;2023-08-06T01:36:15;7.07;;;3.00;;
20559;SDS011;10438;51.454;6.718;2023-08-06T01:38:43;6.63;;;2.95;;
20559;SDS011;10438;51.454;6.718;2023-08-06T01:41:09;6.65;;;3.40;;
20559;SDS011;10438;51.454;6.718;2023-08-06T01:43:34;6.60;;;2.88;;
20559;SDS011;10438;51.454;6.718;2023-08-06T01:46:00;5.38;;;2.97;;
20559;SDS011;10438;51.454;6.718;2023-08-06T01:48:25;7.25;;;3.03;;
20559;SDS011;10438;51.454;6.718;2023-08-06T01:50:51;6.70;;;3.55;;
20559;SDS011;10438;51.454;6.718;2023-08-06T01:53:16;10.80;;;3.10;;
20559;SDS011;10438;51.454;6.718;2023-08-06T01:55:42;5.60;;;3.13;;
20559;SDS011;10438;51.454;6.718;2023-08-06T01:58:12;7.72;;;3.13;;
20559;SDS011;10438;51.454;6.718;2023-08-06T02:00:37;8.02;;;3.45;;
20559;SDS011;10438;51.454;6.718;2023-08-06T02:03:03;8.52;;;3.88;;
20559;SDS011;10438;51.454;6.718;2023-08-06T02:05:28;8.85;;;3.38;;
20559;SDS011;10438;51.454;6.718;2023-08-06T02:07:54;10.10;;;3.60;;
20559;SDS011;10438;51.454;6.718;2023-08-06T02:10:19;11.45;;;3.45;;
20559;SDS011;10438;51.454;6.718;2023-08-06T02:12:45;6.88;;;3.40;;
20559;SDS011;10438;51.454;6.718;2023-08-06T02:15:10;9.07;;;4.00;;
20559;SDS011;10438;51.454;6.718;2023-08-06T02:17:36;11.15;;;4.05;;
20559;SDS011;10438;51.454;6.718;2023-08-06T02:20:01;8.65;;;3.45;;
20559;SDS011;10438;51.454;6.718;2023-08-06T02:22:27;9.10;;;3.75;;
20559;SDS011;10438;51.454;6.718;2023-08-06T02:24:53;8.82;;;3.55;;
20559;SDS011;10438;51.454;6.718;2023-08-06T02:27:18;9.00;;;3.65;;
20559;SDS011;10438;51.454;6.718;2023-08-06T02:29:44;8.20;;;3.60;;
20559;SDS011;10438;51.454;6.718;2023-08-06T02:32:09;5.38;;;3.40;;
20559;SDS011;10438;51.454;6.718;2023-08-06T02:34:35;11.68;;;3.97;;
20559;SDS011;10438;51.454;6.718;2023-08-06T02:37:00;7.63;;;3.42;;
20559;SDS011;10438;51.454;6.718;2023-08-06T02:39:26;9.40;;;4.03;;
20559;SDS011;10438;51.454;6.718;2023-08-06T02:41:51;9.82;;;3.47;;
20559;SDS011;10438;51.454;6.718;2023-08-06T02:44:17;9.05;;;3.58;;
20559;SDS011;10438;51.454;6.718;2023-08-06T02:46:44;10.50;;;3.47;;
20559;SDS011;10438;51.454;6.718;2023-08-06T02:49:09;6.68;;;3.25;;
20559;SDS011;10438;51.454;6.718;2023-08-06T02:51:35;6.22;;;3.38;;
20559;SDS011;10438;51.454;6.718;2023-08-06T02:54:00;7.70;;;3.20;;
20559;SDS011;10438;51.454;6.718;2023-08-06T02:56:26;6.57;;;3.65;;
20559;SDS011;10438;51.454;6.718;2023-08-06T02:58:52;5.65;;;3.40;;
20559;SDS011;10438;51.454;6.718;2023-08-06T03:01:17;9.00;;;3.50;;
20559;SDS011;10438;51.454;6.718;2023-08-06T03:03:43;6.47;;;3.20;;
20559;SDS011;10438;51.454;6.718;2023-08-06T03:06:08;10.52;;;3.97;;
20559;SDS011;10438;51.454;6.718;2023-08-06T03:08:34;6.45;;;3.47;;
20559;SDS011;10438;51.454;6.718;2023-08-06T03:10:59;11.10;;;3.25;;
20559;SDS011;10438;51.454;6.718;2023-08-06T03:13:25;5.50;;;3.10;;
20559;SDS011;10438;51.454;6.718;2023-08-06T03:15:51;8.38;;;3.03;;
20559;SDS011;10438;51.454;6.718;2023-08-06T03:18:18;7.20;;;3.45;;
20559;SDS011;10438;51.454;6.718;2023-08-06T03:20:44;6.28;;;3.15;;
20559;SDS011;10438;51.454;6.718;2023-08-06T03:23:10;6.32;;;3.10;;
20559;SDS011;10438;51.454;6.718;2023-08-06T03:25:35;6.35;;;3.08;;
20559;SDS011;10438;51.454;6.718;2023-08-06T03:28:02;6.32;;;3.17;;
20559;SDS011;10438;51.454;6.718;2023-08-06T03:30:27;7.43;;;3.00;;
20559;SDS011;10438;51.454;6.718;2023-08-06T03:32:53;6.70;;;3.40;;
20559;SDS011;10438;51.454;6.718;2023-08-06T03:35:18;7.18;;;3.70;;
20559;SDS011;10438;51.454;6.718;2023-08-06T03:37:44;6.82;;;2.90;;
20559;SDS011;10438;51.454;6.718;2023-08-06T03:40:10;7.72;;;3.03;;
20559;SDS011;10438;51.454;6.718;2023-08-06T03:42:35;5.22;;;2.78;;
20559;SDS011;10438;51.454;6.718;2023-08-06T03:45:01;5.60;;;2.90;;
20559;SDS011;10438;51.454;6.718;2023-08-06T03:47:28;5.85;;;3.25;;
20559;SDS011;10438;51.454;6.718;2023-08-06T03:49:53;9.15;;;3.40;;
20559;SDS011;10438;51.454;6.718;2023-08-06T03:52:19;10.27;;;3.08;;
20559;SDS011;10438;51.454;6.718;2023-08-06T03:54:44;6.15;;;2.78;;
20559;SDS011;10438;51.454;6.718;2023-08-06T03:57:10;7.47;;;2.60;;
20559;SDS011;10438;51.454;6.718;2023-08-06T03:59:35;9.30;;;3.38;;
20559;SDS011;10438;51.454;6.718;2023-08-06T04:02:01;6.03;;;3.25;;
20559;SDS011;10438;51.454;6.718;2023-08-06T04:04:27;9.43;;;3.50;;
20559;SDS011;10438;51.454;6.718;2023-08-06T04:06:52;7.20;;;3.35;;
20559;SDS011;10438;51.454;6.718;2023-08-06T04:09:18;7.53;;;3.38;;
20559;SDS011;10438;51.454;6.718;2023-08-06T04:11:44;7.80;;;2.97;;
20559;SDS011;10438;51.454;6.718;2023-08-06T04:14:09;8.48;;;2.75;;
20559;SDS011;10438;51.454;6.718;2023-08-06T04:16:35;6.13;;;2.92;;
20559;SDS011;10438;51.454;6.718;2023-08-06T04:19:00;7.53;;;3.00;;
20559;SDS011;10438;51.454;6.718;2023-08-06T04:21:26;9.52;;;3.10;;
20559;SDS011;10438;51.454;6.718;2023-08-06T04:23:51;8.40;;;3.25;;
20559;SDS011;10438;51.454;6.718;2023-08-06T04:26:17;9.15;;;2.90;;
20559;SDS011;10438;51.454;6.718;2023-08-06T04:28:42;6.55;;;3.08;;
20559;SDS011;10438;51.454;6.718;2023-08-06T04:31:08;7.22;;;2.70;;
20559;SDS011;10438;51.454;6.718;2023-08-06T04:33:33;6.10;;;2.67;;
20559;SDS011;10438;51.454;6.718;2023-08-06T04:35:59;6.63;;;3.00;;
20559;SDS011;10438;51.454;6.718;2023-08-06T04:38:25;6.03;;;3.03;;
20559;SDS011;10438;51.454;6.718;2023-08-06T04:40:51;6.30;;;2.83;;
20559;SDS011;10438;51.454;6.718;2023-08-06T04:43:16;9.60;;;3.80;;
20559;SDS011;10438;51.454;6.718;2023-08-06T04:45:46;9.55;;;2.95;;
20559;SDS011;10438;51.454;6.718;2023-08-06T04:48:12;4.68;;;2.50;;
20559;SDS011;10438;51.454;6.718;2023-08-06T04:50:38;5.50;;;2.65;;
20559;SDS011;10438;51.454;6.718;2023-08-06T04:53:03;9.05;;;3.30;;
20559;SDS011;10438;51.454;6.718;2023-08-06T04:55:29;7.05;;;2.85;;
20559;SDS011;10438;51.454;6.718;2023-08-06T04:57:54;7.85;;;2.95;;
20559;SDS011;10438;51.454;6.718;2023-08-06T05:00:20;4.60;;;2.63;;
20559;SDS011;10438;51.454;6.718;2023-08-06T05:02:45;7.43;;;3.20;;
20559;SDS011;10438;51.454;6.718;2023-08-06T05:05:11;5.13;;;2.65;;
20559;SDS011;10438;51.454;6.718;2023-08-06T05:07:36;6.38;;;2.50;;
20559;SDS011;10438;51.454;6.718;2023-08-06T05:10:02;8.57;;;2.47;;
20559;SDS011;10438;51.454;6.718;2023-08-06T05:12:29;8.23;;;2.80;;
20559;SDS011;10438;51.454;6.718;2023-08-06T05:14:54;9.45;;;2.85;;
20559;SDS011;10438;51.454;6.718;2023-08-06T05:17:20;5.45;;;2.83;;
20559;SDS011;10438;51.454;6.718;2023-08-06T05:19:47;5.63;;;2.42;;
20559;SDS011;10438;51.454;6.718;2023-08-06T05:22:13;8.90;;;2.58;;
20559;SDS011;10438;51.454;6.718;2023-08-06T05:24:38;6.80;;;2.50;;
20559;SDS011;10438;51.454;6.718;2023-08-06T05:27:04;6.57;;;2.50;;
20559;SDS011;10438;51.454;6.718;2023-08-06T05:29:30;4.85;;;2.33;;
20559;SDS011;10438;51.454;6.718;2023-08-06T05:31:55;9.88;;;2.22;;
20559;SDS011;10438;51.454;6.718;2023-08-06T05:34:21;7.65;;;2.50;;
20559;SDS011;10438;51.454;6.718;2023-08-06T05:36:47;4.43;;;2.17;;
20559;SDS011;10438;51.454;6.718;2023-08-06T05:39:12;6.22;;;2.30;;
20559;SDS011;10438;51.454;6.718;2023-08-06T05:41:37;6.15;;;2.60;;
20559;SDS011;10438;51.454;6.718;2023-08-06T05:44:03;6.25;;;2.60;;
20559;SDS011;10438;51.454;6.718;2023-08-06T05:46:29;10.13;;;3.55;;
20559;SDS011;10438;51.454;6.718;2023-08-06T05:48:54;7.88;;;2.70;;
20559;SDS011;10438;51.454;6.718;2023-08-06T05:51:20;6.40;;;3.00;;
20559;SDS011;10438;51.454;6.718;2023-08-06T05:53:45;6.90;;;2.30;;
20559;SDS011;10438;51.454;6.718;2023-08-06T05:56:12;5.70;;;2.60;;
20559;SDS011;10438;51.454;6.718;2023-08-06T05:58:37;10.50;;;2.88;;
20559;SDS011;10438;51.454;6.718;2023-08-06T06:01:03;6.53;;;2.95;;
20559;SDS011;10438;51.454;6.718;2023-08-06T06:03:28;4.45;;;2.47;;
20559;SDS011;10438;51.454;6.718;2023-08-06T06:05:54;7.35;;;2.75;;
20559;SDS011;10438;51.454;6.718;2023-08-06T06:08:19;4.25;;;2.20;;
20559;SDS011;10438;51.454;6.718;2023-08-06T06:10:45;6.85;;;3.13;;
20559;SDS011;10438;51.454;6.718;2023-08-06T06:13:10;5.65;;;2.20;;
20559;SDS011;10438;51.454;6.718;2023-08-06T06:15:36;5.40;;;2.30;;
20559;SDS011;10438;51.454;6.718;2023-08-06T06:18:02;7.75;;;2.67;;
20559;SDS011;10438;51.454;6.718;2023-08-06T06:20:27;7.45;;;2.70;;
20559;SDS011;10438;51.454;6.718;2023-08-06T06:22:53;6.53;;;2.30;;
20559;SDS011;10438;51.454;6.718;2023-08-06T06:25:18;9.95;;;3.00;;
20559;SDS011;10438;51.454;6.718;2023-08-06T06:27:44;5.82;;;2.45;;
20559;SDS011;10438;51.454;6.718;2023-08-06T06:30:10;6.90;;;2.90;;
20559;SDS011;10438;51.454;6.718;2023-08-06T06:32:37;5.28;;;2.58;;
20559;SDS011;10438;51.454;6.718;2023-08-06T06:35:02;9.48;;;2.90;;
20559;SDS011;10438;51.454;6.718;2023-08-06T06:37:28;5.90;;;2.92;;
20559;SDS011;10438;51.454;6.718;2023-08-06T06:39:53;5.88;;;2.67;;
20559;SDS011;10438;51.454;6.718;2023-08-06T06:42:19;9.48;;;3.10;;
20559;SDS011;10438;51.454;6.718;2023-08-06T06:44:44;7.70;;;3.45;;
20559;SDS011;10438;51.454;6.718;2023-08-06T06:47:10;9.35;;;3.03;;
20559;SDS011;10438;51.454;6.718;2023-08-06T06:49:35;5.15;;;2.97;;
20559;SDS011;10438;51.454;6.718;2023-08-06T06:52:01;7.40;;;3.22;;
20559;SDS011;10438;51.454;6.718;2023-08-06T06:54:27;6.10;;;3.10;;
20559;SDS011;10438;51.454;6.718;2023-08-06T06:56:52;6.95;;;3.15;;
20559;SDS011;10438;51.454;6.718;2023-08-06T06:59:18;6.55;;;3.22;;
20559;SDS011;10438;51.454;6.718;2023-08-06T07:01:43;6.70;;;4.20;;
20559;SDS011;10438;51.454;6.718;2023-08-06T07:04:09;8.65;;;4.07;;
20559;SDS011;10438;51.454;6.718;2023-08-06T07:06:34;6.78;;;4.00;;
20559;SDS011;10438;51.454;6.718;2023-08-06T07:09:00;10.40;;;4.50;;
20559;SDS011;10438;51.454;6.718;2023-08-06T07:11:25;8.88;;;4.38;;
20559;SDS011;10438;51.454;6.718;2023-08-06T07:13:55;14.38;;;5.70;;
20559;SDS011;10438;51.454;6.718;2023-08-06T07:16:23;9.07;;;5.70;;
20559;SDS011;10438;51.454;6.718;2023-08-06T07:18:48;9.40;;;6.10;;
20559;SDS011;10438;51.454;6.718;2023-08-06T07:21:14;14.63;;;6.82;;
20559;SDS011;10438;51.454;6.718;2023-08-06T07:23:39;10.32;;;5.72;;
20559;SDS011;10438;51.454;6.718;2023-08-06T07:26:05;13.38;;;5.55;;
20559;SDS011;10438;51.454;6.718;2023-08-06T07:28:30;12.10;;;6.32;;
20559;SDS011;10438;51.454;6.718;2023-08-06T07:30:56;12.63;;;6.30;;
20559;SDS011;10438;51.454;6.718;2023-08-06T07:33:21;8.68;;;5.47;;
20559;SDS011;10438;51.454;6.718;2023-08-06T07:35:47;13.20;;;6.53;;
20559;SDS011;10438;51.454;6.718;2023-08-06T07:38:12;11.40;;;7.53;;
20559;SDS011;10438;51.454;6.718;2023-08-06T07:40:38;10.63;;;6.80;;
20559;SDS011;10438;51.454;6.718;2023-08-06T07:43:03;11.60;;;7.10;;
20559;SDS011;10438;51.454;6.718;2023-08-06T07:45:36;8.50;;;5.90;;
20559;SDS011;10438;51.454;6.718;2023-08-06T07:48:02;12.20;;;6.50;;
20559;SDS011;10438;51.454;6.718;2023-08-06T07:50:28;8.40;;;5.20;;
20559;SDS011;10438;51.454;6.718;2023-08-06T07:52:54;7.07;;;4.55;;
20559;SDS011;10438;51.454;6.718;2023-08-06T07:55:19;7.97;;;4.20;;
20559;SDS011;10438;51.454;6.718;2023-08-06T07:57:45;8.43;;;4.32;;
20559;SDS011;10438;51.454;6.718;2023-08-06T08:00:10;9.60;;;3.72;;
20559;SDS011;10438;51.454;6.718;2023-08-06T08:02:36;6.75;;;3.85;;
20559;SDS011;10438;51.454;6.718;2023-08-06T08:05:01;6.38;;;3.97;;
20559;SDS011;10438;51.454;6.718;2023-08-06T08:07:27;10.23;;;4.18;;
20559;SDS011;10438;51.454;6.718;2023-08-06T08:09:55;9.23;;;4.07;;
20559;SDS011;10438;51.454;6.718;2023-08-06T08:12:21;8.43;;;3.45;;
20559;SDS011;10438;51.454;6.718;2023-08-06T08:14:47;5.68;;;2.95;;
20559;SDS011;10438;51.454;6.718;2023-08-06T08:17:12;8.38;;;3.58;;
20559;SDS011;10438;51.454;6.718;2023-08-06T08:19:39;7.15;;;2.90;;
20559;SDS011;10438;51.454;6.718;2023-08-06T08:22:05;7.32;;;3.63;;
20559;SDS011;10438;51.454;6.718;2023-08-06T08:24:30;6.45;;;3.35;;
20559;SDS011;10438;51.454;6.718;2023-08-06T08:26:56;7.80;;;3.55;;
20559;SDS011;10438;51.454;6.718;2023-08-06T08:29:22;8.85;;;3.70;;
20559;SDS011;10438;51.454;6.718;2023-08-06T08:31:48;4.95;;;2.95;;
20559;SDS011;10438;51.454;6.718;2023-08-06T08:34:18;6.90;;;2.83;;
20559;SDS011;10438;51.454;6.718;2023-08-06T08:36:44;6.32;;;3.00;;
20559;SDS011;10438;51.454;6.718;2023-08-06T08:39:12;5.80;;;2.35;;
20559;SDS011;10438;51.454;6.718;2023-08-06T08:41:38;5.10;;;2.50;;
20559;SDS011;10438;51.454;6.718;2023-08-06T08:44:05;7.03;;;2.33;;
20559;SDS011;10438;51.454;6.718;2023-08-06T08:46:34;6.45;;;2.40;;
20559;SDS011;10438;51.454;6.718;2023-08-06T08:49:03;6.65;;;2.70;;
20559;SDS011;10438;51.454;6.718;2023-08-06T08:51:29;5.00;;;2.70;;
20559;SDS011;10438;51.454;6.718;2023-08-06T08:53:55;8.43;;;2.58;;
20559;SDS011;10438;51.454;6.718;2023-08-06T08:56:24;8.68;;;1.80;;
20559;SDS011;10438;51.454;6.718;2023-08-06T08:58:50;5.20;;;1.50;;
20559;SDS011;10438;51.454;6.718;2023-08-06T09:01:20;4.75;;;1.52;;
20559;SDS011;10438;51.454;6.718;2023-08-06T09:03:47;7.55;;;1.48;;
20559;SDS011;10438;51.454;6.718;2023-08-06T09:06:13;3.30;;;1.20;;
20559;SDS011;10438;51.454;6.718;2023-08-06T09:08:47;5.32;;;1.75;;
20559;SDS011;10438;51.454;6.718;2023-08-06T09:11:31;5.80;;;1.73;;
20559;SDS011;10438;51.454;6.718;2023-08-06T09:14:05;4.10;;;1.40;;
20559;SDS011;10438;51.454;6.718;2023-08-06T09:16:34;5.15;;;1.73;;
20559;SDS011;10438;51.454;6.718;2023-08-06T09:19:10;6.45;;;1.83;;
20559;SDS011;10438;51.454;6.718;2023-08-06T09:21:42;8.25;;;2.00;;
20559;SDS011;10438;51.454;6.718;2023-08-06T09:24:09;5.10;;;1.80;;
20559;SDS011;10438;51.454;6.718;2023-08-06T09:26:38;4.80;;;1.90;;
20559;SDS011;10438;51.454;6.718;2023-08-06T09:29:14;8.85;;;2.38;;
20559;SDS011;10438;51.454;6.718;2023-08-06T09:31:47;6.75;;;2.17;;
20559;SDS011;10438;51.454;6.718;2023-08-06T09:36:46;9.68;;;2.25;;
20559;SDS011;10438;51.454;6.718;2023-08-06T09:39:22;7.18;;;2.30;;
20559;SDS011;10438;51.454;6.718;2023-08-06T09:41:55;6.90;;;2.30;;
20559;SDS011;10438;51.454;6.718;2023-08-06T09:44:25;6.45;;;2.28;;
20559;SDS011;10438;51.454;6.718;2023-08-06T09:46:53;5.15;;;2.58;;
20559;SDS011;10438;51.454;6.718;2023-08-06T09:49:21;11.43;;;3.30;;
20559;SDS011;10438;51.454;6.718;2023-08-06T09:51:50;9.30;;;3.35;;
20559;SDS011;10438;51.454;6.718;2023-08-06T09:54:18;4.85;;;3.40;;
20559;SDS011;10438;51.454;6.718;2023-08-06T09:56:44;6.72;;;4.75;;
20559;SDS011;10438;51.454;6.718;2023-08-06T09:59:10;7.45;;;5.00;;
20559;SDS011;10438;51.454;6.718;2023-08-06T10:01:38;7.97;;;4.78;;
20559;SDS011;10438;51.454;6.718;2023-08-06T10:04:05;7.28;;;4.50;;
20559;SDS011;10438;51.454;6.718;2023-08-06T10:06:36;11.10;;;6.20;;
20559;SDS011;10438;51.454;6.718;2023-08-06T10:09:02;7.20;;;5.82;;
20559;SDS011;10438;51.454;6.718;2023-08-06T10:11:29;8.38;;;5.40;;
20559;SDS011;10438;51.454;6.718;2023-08-06T10:13:57;9.68;;;5.07;;
20559;SDS011;10438;51.454;6.718;2023-08-06T10:16:35;8.20;;;5.18;;
20559;SDS011;10438;51.454;6.718;2023-08-06T10:19:03;8.23;;;5.55;;
20559;SDS011;10438;51.454;6.718;2023-08-06T10:21:30;8.90;;;5.20;;
20559;SDS011;10438;51.454;6.718;2023-08-06T10:23:56;6.75;;;5.07;;
20559;SDS011;10438;51.454;6.718;2023-08-06T10:26:28;6.97;;;5.80;;
20559;SDS011;10438;51.454;6.718;2023-08-06T10:28:54;7.38;;;5.43;;
20559;SDS011;10438;51.454;6.718;2023-08-06T10:31:28;7.57;;;5.53;;
20559;SDS011;10438;51.454;6.718;2023-08-06T10:34:18;12.23;;;6.45;;
20559;SDS011;10438;51.454;6.718;2023-08-06T10:36:44;8.73;;;5.93;;
20559;SDS011;10438;51.454;6.718;2023-08-06T10:39:12;9.32;;;6.35;;
20559;SDS011;10438;51.454;6.718;2023-08-06T10:41:39;10.50;;;5.90;;
20559;SDS011;10438;51.454;6.718;2023-08-06T10:44:08;6.72;;;3.72;;
20559;SDS011;10438;51.454;6.718;2023-08-06T10:46:34;4.20;;;2.15;;
20559;SDS011;10438;51.454;6.718;2023-08-06T10:49:01;4.13;;;2.00;;
20559;SDS011;10438;51.454;6.718;2023-08-06T10:51:27;5.68;;;1.88;;
20559;SDS011;10438;51.454;6.718;2023-08-06T10:53:52;2.30;;;1.20;;
20559;SDS011;10438;51.454;6.718;2023-08-06T10:56:22;3.38;;;1.20;;
20559;SDS011;10438;51.454;6.718;2023-08-06T10:58:50;4.15;;;1.10;;
20559;SDS011;10438;51.454;6.718;2023-08-06T11:01:18;2.15;;;0.80;;
20559;SDS011;10438;51.454;6.718;2023-08-06T11:03:44;2.20;;;1.00;;
20559;SDS011;10438;51.454;6.718;2023-08-06T11:06:17;7.63;;;1.10;;
20559;SDS011;10438;51.454;6.718;2023-08-06T11:08:48;2.60;;;0.95;;
20559;SDS011;10438;51.454;6.718;2023-08-06T11:11:18;3.58;;;0.80;;
20559;SDS011;10438;51.454;6.718;2023-08-06T11:13:48;8.82;;;1.10;;
20559;SDS011;10438;51.454;6.718;2023-08-06T11:16:15;7.25;;;1.35;;
20559;SDS011;10438;51.454;6.718;2023-08-06T11:18:45;2.33;;;1.30;;
20559;SDS011;10438;51.454;6.718;2023-08-06T11:21:11;2.60;;;1.03;;
20559;SDS011;10438;51.454;6.718;2023-08-06T11:23:36;5.68;;;1.58;;
20559;SDS011;10438;51.454;6.718;2023-08-06T11:26:02;5.17;;;1.57;;
20559;SDS011;10438;51.454;6.718;2023-08-06T11:28:28;3.87;;;1.60;;
20559;SDS011;10438;51.454;6.718;2023-08-06T11:30:54;3.27;;;1.57;;
20559;SDS011;10438;51.454;6.718;2023-08-06T11:33:25;3.07;;;1.70;;
20559;SDS011;10438;51.454;6.718;2023-08-06T11:35:54;8.43;;;1.90;;
20559;SDS011;10438;51.454;6.718;2023-08-06T11:38:21;3.90;;;1.57;;
20559;SDS011;10438;51.454;6.718;2023-08-06T11:40:50;3.43;;;1.73;;
20559;SDS011;10438;51.454;6.718;2023-08-06T11:43:16;3.80;;;1.60;;
20559;SDS011;10438;51.454;6.718;2023-08-06T11:45:43;2.80;;;1.50;;
20559;SDS011;10438;51.454;6.718;2023-08-06T11:48:09;2.63;;;1.40;;
20559;SDS011;10438;51.454;6.718;2023-08-06T11:50:38;2.93;;;1.27;;
20559;SDS011;10438;51.454;6.718;2023-08-06T11:53:03;2.40;;;1.37;;
20559;SDS011;10438;51.454;6.718;2023-08-06T11:55:30;4.13;;;1.33;;
20559;SDS011;10438;51.454;6.718;2023-08-06T11:57:56;2.60;;;1.10;;
20559;SDS011;10438;51.454;6.718;2023-08-06T12:00:25;3.33;;;1.17;;
20559;SDS011;10438;51.454;6.718;2023-08-06T12:02:51;3.30;;;1.17;;
20559;SDS011;10438;51.454;6.718;2023-08-06T12:05:19;2.37;;;1.00;;
20559;SDS011;10438;51.454;6.718;2023-08-06T12:07:51;1.85;;;0.80;;
20559;SDS011;10438;51.454;6.718;2023-08-06T12:10:19;2.17;;;1.00;;
20559;SDS011;10438;51.454;6.718;2023-08-06T12:12:46;1.97;;;1.00;;
20559;SDS011;10438;51.454;6.718;2023-08-06T12:15:14;2.57;;;1.20;;
20559;SDS011;10438;51.454;6.718;2023-08-06T12:17:39;2.83;;;1.30;;
20559;SDS011;10438;51.454;6.718;2023-08-06T12:20:05;2.20;;;1.10;;
20559;SDS011;10438;51.454;6.718;2023-08-06T12:22:32;2.60;;;1.40;;
20559;SDS011;10438;51.454;6.718;2023-08-06T12:25:02;2.70;;;1.23;;
20559;SDS011;10438;51.454;6.718;2023-08-06T12:27:32;3.13;;;1.63;;
20559;SDS011;10438;51.454;6.718;2023-08-06T12:29:58;2.95;;;1.60;;
20559;SDS011;10438;51.454;6.718;2023-08-06T12:32:24;2.97;;;1.58;;
20559;SDS011;10438;51.454;6.718;2023-08-06T12:34:49;4.20;;;2.00;;
20559;SDS011;10438;51.454;6.718;2023-08-06T12:37:15;3.92;;;2.20;;
20559;SDS011;10438;51.454;6.718;2023-08-06T12:39:40;3.95;;;2.20;;
20559;SDS011;10438;51.454;6.718;2023-08-06T12:42:06;4.18;;;2.40;;
20559;SDS011;10438;51.454;6.718;2023-08-06T12:44:32;4.53;;;2.15;;
20559;SDS011;10438;51.454;6.718;2023-08-06T12:46:58;8.60;;;2.30;;
20559;SDS011;10438;51.454;6.718;2023-08-06T12:49:24;4.65;;;2.70;;
20559;SDS011;10438;51.454;6.718;2023-08-06T12:51:51;7.05;;;2.45;;
20559;SDS011;10438;51.454;6.718;2023-08-06T12:54:17;3.92;;;2.30;;
20559;SDS011;10438;51.454;6.718;2023-08-06T12:56:44;7.30;;;2.60;;
20559;SDS011;10438;51.454;6.718;2023-08-06T12:59:11;3.58;;;2.08;;
20559;SDS011;10438;51.454;6.718;2023-08-06T13:01:39;4.65;;;2.40;;
20559;SDS011;10438;51.454;6.718;2023-08-06T13:04:05;6.45;;;2.40;;
20559;SDS011;10438;51.454;6.718;2023-08-06T13:06:31;5.45;;;3.00;;
20559;SDS011;10438;51.454;6.718;2023-08-06T13:09:08;5.35;;;3.17;;
20559;SDS011;10438;51.454;6.718;2023-08-06T13:11:35;5.38;;;3.17;;
20559;SDS011;10438;51.454;6.718;2023-08-06T13:14:06;7.72;;;3.65;;
20559;SDS011;10438;51.454;6.718;2023-08-06T13:16:34;7.97;;;3.75;;
20559;SDS011;10438;51.454;6.718;2023-08-06T13:19:01;6.15;;;3.13;;
20559;SDS011;10438;51.454;6.718;2023-08-06T13:21:31;6.93;;;3.35;;
20559;SDS011;10438;51.454;6.718;2023-08-06T13:24:20;5.95;;;2.95;;
20559;SDS011;10438;51.454;6.718;2023-08-06T13:26:45;9.25;;;3.35;;
20559;SDS011;10438;51.454;6.718;2023-08-06T13:29:11;6.15;;;3.15;;
20559;SDS011;10438;51.454;6.718;2023-08-06T13:31:36;5.28;;;2.70;;
20559;SDS011;10438;51.454;6.718;2023-08-06T13:34:02;6.05;;;2.72;;
20559;SDS011;10438;51.454;6.718;2023-08-06T13:36:28;7.20;;;2.75;;
20559;SDS011;10438;51.454;6.718;2023-08-06T13:38:54;6.32;;;2.45;;
20559;SDS011;10438;51.454;6.718;2023-08-06T13:41:20;5.13;;;2.22;;
20559;SDS011;10438;51.454;6.718;2023-08-06T13:43:45;4.95;;;2.20;;
20559;SDS011;10438;51.454;6.718;2023-08-06T13:46:11;4.55;;;2.30;;
20559;SDS011;10438;51.454;6.718;2023-08-06T13:48:41;6.53;;;2.88;;
20559;SDS011;10438;51.454;6.718;2023-08-06T13:51:10;4.00;;;2.10;;
20559;SDS011;10438;51.454;6.718;2023-08-06T13:53:40;4.93;;;2.20;;
20559;SDS011;10438;51.454;6.718;2023-08-06T13:56:06;5.28;;;2.30;;
20559;SDS011;10438;51.454;6.718;2023-08-06T13:58:32;5.15;;;1.92;;
20559;SDS011;10438;51.454;6.718;2023-08-06T14:00:58;4.38;;;1.98;;
20559;SDS011;10438;51.454;6.718;2023-08-06T14:03:24;4.38;;;1.67;;
20559;SDS011;10438;51.454;6.718;2023-08-06T14:05:50;3.35;;;1.90;;
20559;SDS011;10438;51.454;6.718;2023-08-06T14:08:16;3.63;;;1.67;;
20559;SDS011;10438;51.454;6.718;2023-08-06T14:10:43;3.30;;;1.50;;
20559;SDS011;10438;51.454;6.718;2023-08-06T14:13:09;3.95;;;1.63;;
20559;SDS011;10438;51.454;6.718;2023-08-06T14:15:35;4.53;;;2.22;;
20559;SDS011;10438;51.454;6.718;2023-08-06T14:18:00;5.03;;;2.10;;
20559;SDS011;10438;51.454;6.718;2023-08-06T14:20:27;11.80;;;7.60;;
20559;SDS011;10438;51.454;6.718;2023-08-06T14:22:53;5.93;;;3.13;;
20559;SDS011;10438;51.454;6.718;2023-08-06T14:25:18;4.35;;;1.88;;
20559;SDS011;10438;51.454;6.718;2023-08-06T14:27:44;4.35;;;2.05;;
20559;SDS011;10438;51.454;6.718;2023-08-06T14:30:09;4.22;;;1.92;;
20559;SDS011;10438;51.454;6.718;2023-08-06T14:32:35;3.95;;;1.83;;
20559;SDS011;10438;51.454;6.718;2023-08-06T14:35:01;4.03;;;1.70;;
20559;SDS011;10438;51.454;6.718;2023-08-06T14:37:27;4.53;;;1.98;;
20559;SDS011;10438;51.454;6.718;2023-08-06T14:39:53;6.15;;;1.63;;
20559;SDS011;10438;51.454;6.718;2023-08-06T14:42:18;6.57;;;1.55;;
20559;SDS011;10438;51.454;6.718;2023-08-06T14:44:44;3.95;;;1.73;;
20559;SDS011;10438;51.454;6.718;2023-08-06T14:47:09;4.75;;;1.80;;
20559;SDS011;10438;51.454;6.718;2023-08-06T14:49:35;4.68;;;1.58;;
20559;SDS011;10438;51.454;6.718;2023-08-06T14:52:02;5.70;;;2.97;;
20559;SDS011;10438;51.454;6.718;2023-08-06T14:54:28;3.83;;;1.50;;
20559;SDS011;10438;51.454;6.718;2023-08-06T14:56:54;4.13;;;1.50;;